<?xml version="1.0" encoding="UTF-8" standalone="yes"?>
<gpx xmlns="http://www.topografix.com/GPX/1/1" xmlns:xsi="http://www.w3.org/2001/XMLSchema-instance" version="1.1" creator="MagicMaps Tour Explorer" xsi:schemaLocation="http://www.topografix.com/GPX/1/1 http://www.topografix.com/GPX/1/1/gpx.xsd">
  <trk>
    <name>riffelriss-w</name>
    <trkseg>
      <trkpt lat="47.455520695" lon="10.992635339">
        <ele>999.5</ele>
        <time>2021-04-09T07:58:37Z</time>
      </trkpt>
      <trkpt lat="47.455520527" lon="10.992635507">
        <ele>999.5</ele>
        <time>2021-04-09T07:58:38Z</time>
      </trkpt>
      <trkpt lat="47.455522120" lon="10.992625449">
        <ele>999.4</ele>
        <time>2021-04-09T07:58:55Z</time>
      </trkpt>
      <trkpt lat="47.455524718" lon="10.992623437">
        <ele>999.4</ele>
        <time>2021-04-09T07:59:34Z</time>
      </trkpt>
      <trkpt lat="47.455508625" lon="10.992621174">
        <ele>999.4</ele>
        <time>2021-04-09T07:59:58Z</time>
      </trkpt>
      <trkpt lat="47.455507452" lon="10.992620671">
        <ele>999.4</ele>
        <time>2021-04-09T08:00:06Z</time>
      </trkpt>
      <trkpt lat="47.455475014" lon="10.992634669">
        <ele>999.6</ele>
        <time>2021-04-09T08:00:09Z</time>
      </trkpt>
      <trkpt lat="47.455383567" lon="10.992628969">
        <ele>999.8</ele>
        <time>2021-04-09T08:00:16Z</time>
      </trkpt>
      <trkpt lat="47.455130182" lon="10.992536852">
        <ele>999.7</ele>
        <time>2021-04-09T08:00:37Z</time>
      </trkpt>
      <trkpt lat="47.454881323" lon="10.992485387">
        <ele>1001.0</ele>
        <time>2021-04-09T08:00:57Z</time>
      </trkpt>
      <trkpt lat="47.454649815" lon="10.992396791">
        <ele>1002.8</ele>
        <time>2021-04-09T08:01:17Z</time>
      </trkpt>
      <trkpt lat="47.454590723" lon="10.992335603">
        <ele>1003.5</ele>
        <time>2021-04-09T08:01:32Z</time>
      </trkpt>
      <trkpt lat="47.454558033" lon="10.992296627">
        <ele>1003.9</ele>
        <time>2021-04-09T08:01:46Z</time>
      </trkpt>
      <trkpt lat="47.454462396" lon="10.992101245">
        <ele>1005.2</ele>
        <time>2021-04-09T08:02:04Z</time>
      </trkpt>
      <trkpt lat="47.454439430" lon="10.992004517">
        <ele>1006.0</ele>
        <time>2021-04-09T08:02:11Z</time>
      </trkpt>
      <trkpt lat="47.454366004" lon="10.991751216">
        <ele>1008.8</ele>
        <time>2021-04-09T08:02:33Z</time>
      </trkpt>
      <trkpt lat="47.454361646" lon="10.991754737">
        <ele>1008.9</ele>
        <time>2021-04-09T08:02:48Z</time>
      </trkpt>
      <trkpt lat="47.454359885" lon="10.991739817">
        <ele>1009.1</ele>
        <time>2021-04-09T08:03:07Z</time>
      </trkpt>
      <trkpt lat="47.454361059" lon="10.991731686">
        <ele>1009.1</ele>
        <time>2021-04-09T08:03:25Z</time>
      </trkpt>
      <trkpt lat="47.454344798" lon="10.991638564">
        <ele>1010.4</ele>
        <time>2021-04-09T08:03:42Z</time>
      </trkpt>
      <trkpt lat="47.454299117" lon="10.991472518">
        <ele>1013.1</ele>
        <time>2021-04-09T08:04:00Z</time>
      </trkpt>
      <trkpt lat="47.454283610" lon="10.991305551">
        <ele>1014.8</ele>
        <time>2021-04-09T08:04:18Z</time>
      </trkpt>
      <trkpt lat="47.454261147" lon="10.991107067">
        <ele>1016.7</ele>
        <time>2021-04-09T08:04:36Z</time>
      </trkpt>
      <trkpt lat="47.454259302" lon="10.991075970">
        <ele>1016.9</ele>
        <time>2021-04-09T08:04:39Z</time>
      </trkpt>
      <trkpt lat="47.454258967" lon="10.991065493">
        <ele>1016.8</ele>
        <time>2021-04-09T08:04:40Z</time>
      </trkpt>
      <trkpt lat="47.454257961" lon="10.990854101">
        <ele>1016.4</ele>
        <time>2021-04-09T08:04:57Z</time>
      </trkpt>
      <trkpt lat="47.454208005" lon="10.990672885">
        <ele>1016.4</ele>
        <time>2021-04-09T08:05:14Z</time>
      </trkpt>
      <trkpt lat="47.454163078" lon="10.990587808">
        <ele>1016.6</ele>
        <time>2021-04-09T08:05:38Z</time>
      </trkpt>
      <trkpt lat="47.454069452" lon="10.990505163">
        <ele>1017.3</ele>
        <time>2021-04-09T08:05:51Z</time>
      </trkpt>
      <trkpt lat="47.453948837" lon="10.990354875">
        <ele>1017.3</ele>
        <time>2021-04-09T08:06:09Z</time>
      </trkpt>
      <trkpt lat="47.453908604" lon="10.990275666">
        <ele>1016.4</ele>
        <time>2021-04-09T08:06:16Z</time>
      </trkpt>
      <trkpt lat="47.453887733" lon="10.990144741">
        <ele>1014.8</ele>
        <time>2021-04-09T08:06:24Z</time>
      </trkpt>
      <trkpt lat="47.453863174" lon="10.990090761">
        <ele>1014.2</ele>
        <time>2021-04-09T08:06:28Z</time>
      </trkpt>
      <trkpt lat="47.453706348" lon="10.989930667">
        <ele>1013.5</ele>
        <time>2021-04-09T08:06:48Z</time>
      </trkpt>
      <trkpt lat="47.453678520" lon="10.989903258">
        <ele>1013.3</ele>
        <time>2021-04-09T08:06:51Z</time>
      </trkpt>
      <trkpt lat="47.453522617" lon="10.989688346">
        <ele>1011.3</ele>
        <time>2021-04-09T08:07:08Z</time>
      </trkpt>
      <trkpt lat="47.453325558" lon="10.989507465">
        <ele>1009.3</ele>
        <time>2021-04-09T08:07:27Z</time>
      </trkpt>
      <trkpt lat="47.453163369" lon="10.989331361">
        <ele>1008.9</ele>
        <time>2021-04-09T08:07:46Z</time>
      </trkpt>
      <trkpt lat="47.453101594" lon="10.989129944">
        <ele>1007.8</ele>
        <time>2021-04-09T08:08:02Z</time>
      </trkpt>
      <trkpt lat="47.453071251" lon="10.989064565">
        <ele>1008.2</ele>
        <time>2021-04-09T08:08:07Z</time>
      </trkpt>
      <trkpt lat="47.453053733" lon="10.988805061">
        <ele>1006.9</ele>
        <time>2021-04-09T08:08:24Z</time>
      </trkpt>
      <trkpt lat="47.453010650" lon="10.988555280">
        <ele>1005.9</ele>
        <time>2021-04-09T08:08:41Z</time>
      </trkpt>
      <trkpt lat="47.452945523" lon="10.988359563">
        <ele>1005.0</ele>
        <time>2021-04-09T08:08:56Z</time>
      </trkpt>
      <trkpt lat="47.452834044" lon="10.988159571">
        <ele>1005.0</ele>
        <time>2021-04-09T08:09:13Z</time>
      </trkpt>
      <trkpt lat="47.452689791" lon="10.987969302">
        <ele>1006.0</ele>
        <time>2021-04-09T08:09:31Z</time>
      </trkpt>
      <trkpt lat="47.452529194" lon="10.987792108">
        <ele>1008.1</ele>
        <time>2021-04-09T08:09:51Z</time>
      </trkpt>
      <trkpt lat="47.452440430" lon="10.987695465">
        <ele>1009.2</ele>
        <time>2021-04-09T08:10:07Z</time>
      </trkpt>
      <trkpt lat="47.452311180" lon="10.987549536">
        <ele>1009.9</ele>
        <time>2021-04-09T08:10:24Z</time>
      </trkpt>
      <trkpt lat="47.452195259" lon="10.987438643">
        <ele>1010.9</ele>
        <time>2021-04-09T08:10:40Z</time>
      </trkpt>
      <trkpt lat="47.452097023" lon="10.987327080">
        <ele>1011.0</ele>
        <time>2021-04-09T08:10:58Z</time>
      </trkpt>
      <trkpt lat="47.451998703" lon="10.987216104">
        <ele>1011.4</ele>
        <time>2021-04-09T08:11:14Z</time>
      </trkpt>
      <trkpt lat="47.451884625" lon="10.987109654">
        <ele>1012.4</ele>
        <time>2021-04-09T08:11:31Z</time>
      </trkpt>
      <trkpt lat="47.451839782" lon="10.987081071">
        <ele>1013.0</ele>
        <time>2021-04-09T08:11:36Z</time>
      </trkpt>
      <trkpt lat="47.451662421" lon="10.987016950">
        <ele>1015.4</ele>
        <time>2021-04-09T08:11:53Z</time>
      </trkpt>
      <trkpt lat="47.451559659" lon="10.986959869">
        <ele>1016.6</ele>
        <time>2021-04-09T08:12:03Z</time>
      </trkpt>
      <trkpt lat="47.451489503" lon="10.986898011">
        <ele>1017.6</ele>
        <time>2021-04-09T08:12:19Z</time>
      </trkpt>
      <trkpt lat="47.451478522" lon="10.986900777">
        <ele>1017.9</ele>
        <time>2021-04-09T08:12:45Z</time>
      </trkpt>
      <trkpt lat="47.451371150" lon="10.986821819">
        <ele>1019.8</ele>
        <time>2021-04-09T08:12:59Z</time>
      </trkpt>
      <trkpt lat="47.451212481" lon="10.986649906">
        <ele>1022.6</ele>
        <time>2021-04-09T08:13:22Z</time>
      </trkpt>
      <trkpt lat="47.451119525" lon="10.986500708">
        <ele>1024.3</ele>
        <time>2021-04-09T08:13:40Z</time>
      </trkpt>
      <trkpt lat="47.451025480" lon="10.986343715">
        <ele>1026.4</ele>
        <time>2021-04-09T08:14:00Z</time>
      </trkpt>
      <trkpt lat="47.450944763" lon="10.986233410">
        <ele>1029.1</ele>
        <time>2021-04-09T08:14:16Z</time>
      </trkpt>
      <trkpt lat="47.450939314" lon="10.986226620">
        <ele>1029.3</ele>
        <time>2021-04-09T08:14:17Z</time>
      </trkpt>
      <trkpt lat="47.450865470" lon="10.986098712">
        <ele>1032.3</ele>
        <time>2021-04-09T08:14:35Z</time>
      </trkpt>
      <trkpt lat="47.450814256" lon="10.985949179">
        <ele>1034.8</ele>
        <time>2021-04-09T08:14:54Z</time>
      </trkpt>
      <trkpt lat="47.450756505" lon="10.985760502">
        <ele>1038.2</ele>
        <time>2021-04-09T08:15:12Z</time>
      </trkpt>
      <trkpt lat="47.450715182" lon="10.985570904">
        <ele>1040.6</ele>
        <time>2021-04-09T08:15:30Z</time>
      </trkpt>
      <trkpt lat="47.450699341" lon="10.985318273">
        <ele>1042.0</ele>
        <time>2021-04-09T08:15:53Z</time>
      </trkpt>
      <trkpt lat="47.450641505" lon="10.985091794">
        <ele>1043.4</ele>
        <time>2021-04-09T08:16:13Z</time>
      </trkpt>
      <trkpt lat="47.450571600" lon="10.984906722">
        <ele>1045.0</ele>
        <time>2021-04-09T08:16:30Z</time>
      </trkpt>
      <trkpt lat="47.450493481" lon="10.984741934">
        <ele>1046.8</ele>
        <time>2021-04-09T08:16:45Z</time>
      </trkpt>
      <trkpt lat="47.450407064" lon="10.984621318">
        <ele>1048.8</ele>
        <time>2021-04-09T08:17:01Z</time>
      </trkpt>
      <trkpt lat="47.450276893" lon="10.984513275">
        <ele>1052.1</ele>
        <time>2021-04-09T08:17:21Z</time>
      </trkpt>
      <trkpt lat="47.450194918" lon="10.984387379">
        <ele>1054.0</ele>
        <time>2021-04-09T08:17:36Z</time>
      </trkpt>
      <trkpt lat="47.450117050" lon="10.984293837">
        <ele>1055.7</ele>
        <time>2021-04-09T08:17:50Z</time>
      </trkpt>
      <trkpt lat="47.450041864" lon="10.984199960">
        <ele>1057.6</ele>
        <time>2021-04-09T08:18:05Z</time>
      </trkpt>
      <trkpt lat="47.449927702" lon="10.984120499">
        <ele>1060.1</ele>
        <time>2021-04-09T08:18:24Z</time>
      </trkpt>
      <trkpt lat="47.449877914" lon="10.984125445">
        <ele>1061.0</ele>
        <time>2021-04-09T08:18:38Z</time>
      </trkpt>
      <trkpt lat="47.449871795" lon="10.984124606">
        <ele>1061.1</ele>
        <time>2021-04-09T08:18:57Z</time>
      </trkpt>
      <trkpt lat="47.449856875" lon="10.984075740">
        <ele>1061.7</ele>
        <time>2021-04-09T08:19:23Z</time>
      </trkpt>
      <trkpt lat="47.449804237" lon="10.984010529">
        <ele>1063.0</ele>
        <time>2021-04-09T08:19:39Z</time>
      </trkpt>
      <trkpt lat="47.449726202" lon="10.983871641">
        <ele>1065.1</ele>
        <time>2021-04-09T08:19:56Z</time>
      </trkpt>
      <trkpt lat="47.449677587" lon="10.983808860">
        <ele>1066.4</ele>
        <time>2021-04-09T08:20:13Z</time>
      </trkpt>
      <trkpt lat="47.449677000" lon="10.983805172">
        <ele>1066.4</ele>
        <time>2021-04-09T08:20:58Z</time>
      </trkpt>
      <trkpt lat="47.449675072" lon="10.983803496">
        <ele>1066.4</ele>
        <time>2021-04-09T08:22:25Z</time>
      </trkpt>
      <trkpt lat="47.449673647" lon="10.983797964">
        <ele>1066.5</ele>
        <time>2021-04-09T08:24:27Z</time>
      </trkpt>
      <trkpt lat="47.449589996" lon="10.983762592">
        <ele>1068.4</ele>
        <time>2021-04-09T08:24:43Z</time>
      </trkpt>
      <trkpt lat="47.449485389" lon="10.983725712">
        <ele>1070.9</ele>
        <time>2021-04-09T08:24:57Z</time>
      </trkpt>
      <trkpt lat="47.449365612" lon="10.983643988">
        <ele>1074.1</ele>
        <time>2021-04-09T08:25:15Z</time>
      </trkpt>
      <trkpt lat="47.449270478" lon="10.983526893">
        <ele>1076.7</ele>
        <time>2021-04-09T08:25:32Z</time>
      </trkpt>
      <trkpt lat="47.449222868" lon="10.983465621">
        <ele>1078.0</ele>
        <time>2021-04-09T08:25:41Z</time>
      </trkpt>
      <trkpt lat="47.449217420" lon="10.983459167">
        <ele>1078.1</ele>
        <time>2021-04-09T08:25:42Z</time>
      </trkpt>
      <trkpt lat="47.449106947" lon="10.983376857">
        <ele>1080.6</ele>
        <time>2021-04-09T08:25:59Z</time>
      </trkpt>
      <trkpt lat="47.448994042" lon="10.983281722">
        <ele>1082.9</ele>
        <time>2021-04-09T08:26:18Z</time>
      </trkpt>
      <trkpt lat="47.448897734" lon="10.983192287">
        <ele>1085.7</ele>
        <time>2021-04-09T08:26:35Z</time>
      </trkpt>
      <trkpt lat="47.448800420" lon="10.983114503">
        <ele>1088.8</ele>
        <time>2021-04-09T08:26:52Z</time>
      </trkpt>
      <trkpt lat="47.448678548" lon="10.983016435">
        <ele>1092.6</ele>
        <time>2021-04-09T08:27:12Z</time>
      </trkpt>
      <trkpt lat="47.448569667" lon="10.982899927">
        <ele>1095.9</ele>
        <time>2021-04-09T08:27:30Z</time>
      </trkpt>
      <trkpt lat="47.448455170" lon="10.982797500">
        <ele>1098.9</ele>
        <time>2021-04-09T08:27:48Z</time>
      </trkpt>
      <trkpt lat="47.448398676" lon="10.982745197">
        <ele>1100.3</ele>
        <time>2021-04-09T08:28:02Z</time>
      </trkpt>
      <trkpt lat="47.448318210" lon="10.982680321">
        <ele>1102.1</ele>
        <time>2021-04-09T08:28:26Z</time>
      </trkpt>
      <trkpt lat="47.448216621" lon="10.982580827">
        <ele>1105.2</ele>
        <time>2021-04-09T08:28:43Z</time>
      </trkpt>
      <trkpt lat="47.448082343" lon="10.982550066">
        <ele>1108.5</ele>
        <time>2021-04-09T08:29:02Z</time>
      </trkpt>
      <trkpt lat="47.447968768" lon="10.982504887">
        <ele>1111.6</ele>
        <time>2021-04-09T08:29:20Z</time>
      </trkpt>
      <trkpt lat="47.447830886" lon="10.982488375">
        <ele>1114.5</ele>
        <time>2021-04-09T08:29:41Z</time>
      </trkpt>
      <trkpt lat="47.447679257" lon="10.982494997">
        <ele>1117.0</ele>
        <time>2021-04-09T08:30:04Z</time>
      </trkpt>
      <trkpt lat="47.447561994" lon="10.982507402">
        <ele>1119.4</ele>
        <time>2021-04-09T08:30:20Z</time>
      </trkpt>
      <trkpt lat="47.447468033" lon="10.982465241">
        <ele>1122.9</ele>
        <time>2021-04-09T08:30:39Z</time>
      </trkpt>
      <trkpt lat="47.447356721" lon="10.982432300">
        <ele>1127.1</ele>
        <time>2021-04-09T08:30:59Z</time>
      </trkpt>
      <trkpt lat="47.447242895" lon="10.982405813">
        <ele>1132.2</ele>
        <time>2021-04-09T08:31:16Z</time>
      </trkpt>
      <trkpt lat="47.447108533" lon="10.982315708">
        <ele>1138.1</ele>
        <time>2021-04-09T08:31:36Z</time>
      </trkpt>
      <trkpt lat="47.447004430" lon="10.982199032">
        <ele>1141.0</ele>
        <time>2021-04-09T08:31:55Z</time>
      </trkpt>
      <trkpt lat="47.446911894" lon="10.982099958">
        <ele>1143.7</ele>
        <time>2021-04-09T08:32:14Z</time>
      </trkpt>
      <trkpt lat="47.446834194" lon="10.982022928">
        <ele>1145.8</ele>
        <time>2021-04-09T08:32:32Z</time>
      </trkpt>
      <trkpt lat="47.446753560" lon="10.981929721">
        <ele>1147.9</ele>
        <time>2021-04-09T08:32:50Z</time>
      </trkpt>
      <trkpt lat="47.446667310" lon="10.981812626">
        <ele>1150.1</ele>
        <time>2021-04-09T08:33:11Z</time>
      </trkpt>
      <trkpt lat="47.446595645" lon="10.981720090">
        <ele>1151.9</ele>
        <time>2021-04-09T08:33:28Z</time>
      </trkpt>
      <trkpt lat="47.446518196" lon="10.981647419">
        <ele>1153.5</ele>
        <time>2021-04-09T08:33:45Z</time>
      </trkpt>
      <trkpt lat="47.446413171" lon="10.981557397">
        <ele>1155.8</ele>
        <time>2021-04-09T08:34:06Z</time>
      </trkpt>
      <trkpt lat="47.446326586" lon="10.981520517">
        <ele>1157.2</ele>
        <time>2021-04-09T08:34:23Z</time>
      </trkpt>
      <trkpt lat="47.446253160" lon="10.981459245">
        <ele>1159.0</ele>
        <time>2021-04-09T08:34:38Z</time>
      </trkpt>
      <trkpt lat="47.446166324" lon="10.981432591">
        <ele>1161.9</ele>
        <time>2021-04-09T08:34:55Z</time>
      </trkpt>
      <trkpt lat="47.446076386" lon="10.981367044">
        <ele>1165.3</ele>
        <time>2021-04-09T08:35:15Z</time>
      </trkpt>
      <trkpt lat="47.446015868" lon="10.981260929">
        <ele>1168.1</ele>
        <time>2021-04-09T08:35:32Z</time>
      </trkpt>
      <trkpt lat="47.445970690" lon="10.981162190">
        <ele>1170.4</ele>
        <time>2021-04-09T08:35:47Z</time>
      </trkpt>
      <trkpt lat="47.445891229" lon="10.981078707">
        <ele>1174.0</ele>
        <time>2021-04-09T08:36:06Z</time>
      </trkpt>
      <trkpt lat="47.445821911" lon="10.981074683">
        <ele>1176.1</ele>
        <time>2021-04-09T08:36:24Z</time>
      </trkpt>
      <trkpt lat="47.445746977" lon="10.981035121">
        <ele>1179.1</ele>
        <time>2021-04-09T08:36:40Z</time>
      </trkpt>
      <trkpt lat="47.445672043" lon="10.980975777">
        <ele>1182.3</ele>
        <time>2021-04-09T08:36:58Z</time>
      </trkpt>
      <trkpt lat="47.445596019" lon="10.980989942">
        <ele>1184.6</ele>
        <time>2021-04-09T08:37:16Z</time>
      </trkpt>
      <trkpt lat="47.445516642" lon="10.980942333">
        <ele>1187.7</ele>
        <time>2021-04-09T08:37:33Z</time>
      </trkpt>
      <trkpt lat="47.445440618" lon="10.980864046">
        <ele>1190.7</ele>
        <time>2021-04-09T08:37:53Z</time>
      </trkpt>
      <trkpt lat="47.445374317" lon="10.980823478">
        <ele>1193.1</ele>
        <time>2021-04-09T08:38:10Z</time>
      </trkpt>
      <trkpt lat="47.445304329" lon="10.980813671">
        <ele>1195.6</ele>
        <time>2021-04-09T08:38:27Z</time>
      </trkpt>
      <trkpt lat="47.445259485" lon="10.980733875">
        <ele>1198.1</ele>
        <time>2021-04-09T08:38:44Z</time>
      </trkpt>
      <trkpt lat="47.445212211" lon="10.980659695">
        <ele>1200.5</ele>
        <time>2021-04-09T08:39:00Z</time>
      </trkpt>
      <trkpt lat="47.445166781" lon="10.980569003">
        <ele>1202.9</ele>
        <time>2021-04-09T08:39:18Z</time>
      </trkpt>
      <trkpt lat="47.445105258" lon="10.980481496">
        <ele>1205.8</ele>
        <time>2021-04-09T08:39:39Z</time>
      </trkpt>
      <trkpt lat="47.445081705" lon="10.980459452">
        <ele>1206.9</ele>
        <time>2021-04-09T08:39:57Z</time>
      </trkpt>
      <trkpt lat="47.445076341" lon="10.980471354">
        <ele>1207.0</ele>
        <time>2021-04-09T08:40:12Z</time>
      </trkpt>
      <trkpt lat="47.445076676" lon="10.980474371">
        <ele>1206.9</ele>
        <time>2021-04-09T08:40:58Z</time>
      </trkpt>
      <trkpt lat="47.445077850" lon="10.980475293">
        <ele>1206.9</ele>
        <time>2021-04-09T08:41:34Z</time>
      </trkpt>
      <trkpt lat="47.445079442" lon="10.980474958">
        <ele>1206.8</ele>
        <time>2021-04-09T08:42:32Z</time>
      </trkpt>
      <trkpt lat="47.445059493" lon="10.980480239">
        <ele>1207.5</ele>
        <time>2021-04-09T08:43:12Z</time>
      </trkpt>
      <trkpt lat="47.445001490" lon="10.980471102">
        <ele>1209.6</ele>
        <time>2021-04-09T08:43:20Z</time>
      </trkpt>
      <trkpt lat="47.444937117" lon="10.980465151">
        <ele>1211.9</ele>
        <time>2021-04-09T08:43:30Z</time>
      </trkpt>
      <trkpt lat="47.444941895" lon="10.980452578">
        <ele>1211.9</ele>
        <time>2021-04-09T08:43:59Z</time>
      </trkpt>
      <trkpt lat="47.444891436" lon="10.980457440">
        <ele>1213.4</ele>
        <time>2021-04-09T08:44:32Z</time>
      </trkpt>
      <trkpt lat="47.444809545" lon="10.980475629">
        <ele>1215.8</ele>
        <time>2021-04-09T08:44:49Z</time>
      </trkpt>
      <trkpt lat="47.444730839" lon="10.980504798">
        <ele>1218.0</ele>
        <time>2021-04-09T08:45:04Z</time>
      </trkpt>
      <trkpt lat="47.444653558" lon="10.980543187">
        <ele>1220.6</ele>
        <time>2021-04-09T08:45:18Z</time>
      </trkpt>
      <trkpt lat="47.444578959" lon="10.980525166">
        <ele>1223.6</ele>
        <time>2021-04-09T08:45:32Z</time>
      </trkpt>
      <trkpt lat="47.444523135" lon="10.980517790">
        <ele>1225.9</ele>
        <time>2021-04-09T08:45:44Z</time>
      </trkpt>
      <trkpt lat="47.444457086" lon="10.980582079">
        <ele>1227.9</ele>
        <time>2021-04-09T08:45:59Z</time>
      </trkpt>
      <trkpt lat="47.444382822" lon="10.980574032">
        <ele>1231.3</ele>
        <time>2021-04-09T08:46:13Z</time>
      </trkpt>
      <trkpt lat="47.444321970" lon="10.980569338">
        <ele>1234.0</ele>
        <time>2021-04-09T08:46:26Z</time>
      </trkpt>
      <trkpt lat="47.444258099" lon="10.980545450">
        <ele>1237.1</ele>
        <time>2021-04-09T08:46:43Z</time>
      </trkpt>
      <trkpt lat="47.444188865" lon="10.980523573">
        <ele>1240.6</ele>
        <time>2021-04-09T08:47:00Z</time>
      </trkpt>
      <trkpt lat="47.444120804" lon="10.980507480">
        <ele>1244.0</ele>
        <time>2021-04-09T08:47:15Z</time>
      </trkpt>
      <trkpt lat="47.444044277" lon="10.980546037">
        <ele>1247.1</ele>
        <time>2021-04-09T08:47:32Z</time>
      </trkpt>
      <trkpt lat="47.443960877" lon="10.980520807">
        <ele>1251.2</ele>
        <time>2021-04-09T08:47:50Z</time>
      </trkpt>
      <trkpt lat="47.443914190" lon="10.980465487">
        <ele>1253.9</ele>
        <time>2021-04-09T08:48:07Z</time>
      </trkpt>
      <trkpt lat="47.443912681" lon="10.980451824">
        <ele>1254.2</ele>
        <time>2021-04-09T08:48:47Z</time>
      </trkpt>
      <trkpt lat="47.443907820" lon="10.980344284">
        <ele>1255.6</ele>
        <time>2021-04-09T08:49:08Z</time>
      </trkpt>
      <trkpt lat="47.443844704" lon="10.980207659">
        <ele>1259.7</ele>
        <time>2021-04-09T08:49:25Z</time>
      </trkpt>
      <trkpt lat="47.443805309" lon="10.980169019">
        <ele>1261.7</ele>
        <time>2021-04-09T08:49:35Z</time>
      </trkpt>
      <trkpt lat="47.443765327" lon="10.980037926">
        <ele>1264.0</ele>
        <time>2021-04-09T08:49:56Z</time>
      </trkpt>
      <trkpt lat="47.443713192" lon="10.979931559">
        <ele>1266.3</ele>
        <time>2021-04-09T08:50:15Z</time>
      </trkpt>
      <trkpt lat="47.443666756" lon="10.979811447">
        <ele>1268.4</ele>
        <time>2021-04-09T08:50:32Z</time>
      </trkpt>
      <trkpt lat="47.443642616" lon="10.979686556">
        <ele>1269.5</ele>
        <time>2021-04-09T08:50:50Z</time>
      </trkpt>
      <trkpt lat="47.443585368" lon="10.979590332">
        <ele>1271.6</ele>
        <time>2021-04-09T08:51:09Z</time>
      </trkpt>
      <trkpt lat="47.443524348" lon="10.979461502">
        <ele>1273.8</ele>
        <time>2021-04-09T08:51:30Z</time>
      </trkpt>
      <trkpt lat="47.443438768" lon="10.979422275">
        <ele>1276.9</ele>
        <time>2021-04-09T08:51:47Z</time>
      </trkpt>
      <trkpt lat="47.443405744" lon="10.979397716">
        <ele>1278.0</ele>
        <time>2021-04-09T08:51:52Z</time>
      </trkpt>
      <trkpt lat="47.443349920" lon="10.979249105">
        <ele>1279.5</ele>
        <time>2021-04-09T08:52:10Z</time>
      </trkpt>
      <trkpt lat="47.443225449" lon="10.979036121">
        <ele>1282.8</ele>
        <time>2021-04-09T08:52:32Z</time>
      </trkpt>
      <trkpt lat="47.443126040" lon="10.978852892">
        <ele>1284.9</ele>
        <time>2021-04-09T08:52:52Z</time>
      </trkpt>
      <trkpt lat="47.443047753" lon="10.978693552">
        <ele>1286.6</ele>
        <time>2021-04-09T08:53:08Z</time>
      </trkpt>
      <trkpt lat="47.442927472" lon="10.978546199">
        <ele>1289.9</ele>
        <time>2021-04-09T08:53:26Z</time>
      </trkpt>
      <trkpt lat="47.442817753" lon="10.978431869">
        <ele>1292.5</ele>
        <time>2021-04-09T08:53:43Z</time>
      </trkpt>
      <trkpt lat="47.442701999" lon="10.978300609">
        <ele>1296.9</ele>
        <time>2021-04-09T08:54:02Z</time>
      </trkpt>
      <trkpt lat="47.442581551" lon="10.978194745">
        <ele>1301.8</ele>
        <time>2021-04-09T08:54:22Z</time>
      </trkpt>
      <trkpt lat="47.442476693" lon="10.978138838">
        <ele>1305.8</ele>
        <time>2021-04-09T08:54:40Z</time>
      </trkpt>
      <trkpt lat="47.442398155" lon="10.978069687">
        <ele>1309.3</ele>
        <time>2021-04-09T08:55:06Z</time>
      </trkpt>
      <trkpt lat="47.442304445" lon="10.978028281">
        <ele>1312.9</ele>
        <time>2021-04-09T08:55:26Z</time>
      </trkpt>
      <trkpt lat="47.442191876" lon="10.978028365">
        <ele>1315.7</ele>
        <time>2021-04-09T08:55:46Z</time>
      </trkpt>
      <trkpt lat="47.442104872" lon="10.978047810">
        <ele>1317.4</ele>
        <time>2021-04-09T08:56:04Z</time>
      </trkpt>
      <trkpt lat="47.442039410" lon="10.978056863">
        <ele>1318.8</ele>
        <time>2021-04-09T08:56:19Z</time>
      </trkpt>
      <trkpt lat="47.441941761" lon="10.978039848">
        <ele>1320.8</ele>
        <time>2021-04-09T08:56:37Z</time>
      </trkpt>
      <trkpt lat="47.441822989" lon="10.977934319">
        <ele>1326.5</ele>
        <time>2021-04-09T08:56:59Z</time>
      </trkpt>
      <trkpt lat="47.441782756" lon="10.977948401">
        <ele>1326.7</ele>
        <time>2021-04-09T08:57:09Z</time>
      </trkpt>
      <trkpt lat="47.441765070" lon="10.977988299">
        <ele>1325.7</ele>
        <time>2021-04-09T08:57:12Z</time>
      </trkpt>
      <trkpt lat="47.441752581" lon="10.978022581">
        <ele>1324.7</ele>
        <time>2021-04-09T08:57:16Z</time>
      </trkpt>
      <trkpt lat="47.441707654" lon="10.978032472">
        <ele>1325.5</ele>
        <time>2021-04-09T08:57:44Z</time>
      </trkpt>
      <trkpt lat="47.441611597" lon="10.977970865">
        <ele>1329.4</ele>
        <time>2021-04-09T08:58:08Z</time>
      </trkpt>
      <trkpt lat="47.441495256" lon="10.978044625">
        <ele>1330.0</ele>
        <time>2021-04-09T08:58:26Z</time>
      </trkpt>
      <trkpt lat="47.441398613" lon="10.978101455">
        <ele>1331.4</ele>
        <time>2021-04-09T08:58:45Z</time>
      </trkpt>
      <trkpt lat="47.441280847" lon="10.978176892">
        <ele>1333.1</ele>
        <time>2021-04-09T08:59:03Z</time>
      </trkpt>
      <trkpt lat="47.441254528" lon="10.978162643">
        <ele>1333.8</ele>
        <time>2021-04-09T08:59:19Z</time>
      </trkpt>
      <trkpt lat="47.441118909" lon="10.978255766">
        <ele>1336.1</ele>
        <time>2021-04-09T08:59:38Z</time>
      </trkpt>
      <trkpt lat="47.441110360" lon="10.978261214">
        <ele>1336.3</ele>
        <time>2021-04-09T08:59:40Z</time>
      </trkpt>
      <trkpt lat="47.441049758" lon="10.978315948">
        <ele>1337.7</ele>
        <time>2021-04-09T08:59:53Z</time>
      </trkpt>
      <trkpt lat="47.440938195" lon="10.978428768">
        <ele>1341.5</ele>
        <time>2021-04-09T09:00:12Z</time>
      </trkpt>
      <trkpt lat="47.440845575" lon="10.978532033">
        <ele>1345.1</ele>
        <time>2021-04-09T09:00:27Z</time>
      </trkpt>
      <trkpt lat="47.440839373" lon="10.978583079">
        <ele>1345.1</ele>
        <time>2021-04-09T09:00:47Z</time>
      </trkpt>
      <trkpt lat="47.440858902" lon="10.978718866">
        <ele>1345.0</ele>
        <time>2021-04-09T09:01:03Z</time>
      </trkpt>
      <trkpt lat="47.440725786" lon="10.978901004">
        <ele>1351.3</ele>
      </trkpt>
      <trkpt lat="47.440623204" lon="10.979109372">
        <ele>1356.8</ele>
      </trkpt>
      <trkpt lat="47.440538837" lon="10.979305160">
        <ele>1360.6</ele>
      </trkpt>
      <trkpt lat="47.440409276" lon="10.979512515">
        <ele>1365.3</ele>
      </trkpt>
      <trkpt lat="47.440234065" lon="10.979757946">
        <ele>1371.6</ele>
      </trkpt>
      <trkpt lat="47.440060610" lon="10.979979672">
        <ele>1379.4</ele>
        <time>2021-04-09T09:04:57Z</time>
      </trkpt>
      <trkpt lat="47.439852990" lon="10.980060138">
        <ele>1387.5</ele>
        <time>2021-04-09T09:05:16Z</time>
      </trkpt>
      <trkpt lat="47.439774284" lon="10.980105903">
        <ele>1390.3</ele>
        <time>2021-04-09T09:05:31Z</time>
      </trkpt>
      <trkpt lat="47.439754922" lon="10.980118727">
        <ele>1391.0</ele>
        <time>2021-04-09T09:06:11Z</time>
      </trkpt>
      <trkpt lat="47.439732291" lon="10.980128199">
        <ele>1391.9</ele>
        <time>2021-04-09T09:06:31Z</time>
      </trkpt>
      <trkpt lat="47.439727513" lon="10.980130797">
        <ele>1392.0</ele>
        <time>2021-04-09T09:06:32Z</time>
      </trkpt>
      <trkpt lat="47.439711504" lon="10.980144125">
        <ele>1392.6</ele>
        <time>2021-04-09T09:06:35Z</time>
      </trkpt>
      <trkpt lat="47.439620476" lon="10.980202211">
        <ele>1395.7</ele>
        <time>2021-04-09T09:06:50Z</time>
      </trkpt>
      <trkpt lat="47.439494664" lon="10.980279325">
        <ele>1399.4</ele>
        <time>2021-04-09T09:07:08Z</time>
      </trkpt>
      <trkpt lat="47.439409671" lon="10.980317043">
        <ele>1401.7</ele>
        <time>2021-04-09T09:07:24Z</time>
      </trkpt>
      <trkpt lat="47.439351333" lon="10.980335316">
        <ele>1403.2</ele>
        <time>2021-04-09T09:07:33Z</time>
      </trkpt>
      <trkpt lat="47.439339096" lon="10.980336238">
        <ele>1403.6</ele>
        <time>2021-04-09T09:07:34Z</time>
      </trkpt>
      <trkpt lat="47.439240189" lon="10.980357192">
        <ele>1406.6</ele>
        <time>2021-04-09T09:07:48Z</time>
      </trkpt>
      <trkpt lat="47.439118568" lon="10.980385775">
        <ele>1410.3</ele>
        <time>2021-04-09T09:08:03Z</time>
      </trkpt>
      <trkpt lat="47.438971968" lon="10.980440090">
        <ele>1414.3</ele>
        <time>2021-04-09T09:08:21Z</time>
      </trkpt>
      <trkpt lat="47.438781867" lon="10.980489375">
        <ele>1419.6</ele>
        <time>2021-04-09T09:08:42Z</time>
      </trkpt>
      <trkpt lat="47.438625880" lon="10.980492476">
        <ele>1423.8</ele>
        <time>2021-04-09T09:09:02Z</time>
      </trkpt>
      <trkpt lat="47.438513646" lon="10.980483172">
        <ele>1427.9</ele>
        <time>2021-04-09T09:09:18Z</time>
      </trkpt>
      <trkpt lat="47.438401664" lon="10.980476886">
        <ele>1431.8</ele>
        <time>2021-04-09T09:09:37Z</time>
      </trkpt>
      <trkpt lat="47.438385822" lon="10.980465068">
        <ele>1432.4</ele>
        <time>2021-04-09T09:09:51Z</time>
      </trkpt>
      <trkpt lat="47.438306361" lon="10.980466660">
        <ele>1434.7</ele>
        <time>2021-04-09T09:10:09Z</time>
      </trkpt>
      <trkpt lat="47.438243832" lon="10.980482921">
        <ele>1436.5</ele>
        <time>2021-04-09T09:10:21Z</time>
      </trkpt>
      <trkpt lat="47.438172670" lon="10.980484597">
        <ele>1438.5</ele>
        <time>2021-04-09T09:10:38Z</time>
      </trkpt>
      <trkpt lat="47.438037638" lon="10.980499433">
        <ele>1440.9</ele>
        <time>2021-04-09T09:11:01Z</time>
      </trkpt>
      <trkpt lat="47.437943844" lon="10.980542852">
        <ele>1442.4</ele>
        <time>2021-04-09T09:11:14Z</time>
      </trkpt>
      <trkpt lat="47.437856588" lon="10.980544696">
        <ele>1444.3</ele>
        <time>2021-04-09T09:11:32Z</time>
      </trkpt>
      <trkpt lat="47.437942754" lon="10.980540505">
        <ele>1442.4</ele>
        <time>2021-04-09T09:11:48Z</time>
      </trkpt>
      <trkpt lat="47.437979300" lon="10.980535727">
        <ele>1441.7</ele>
        <time>2021-04-09T09:11:52Z</time>
      </trkpt>
      <trkpt lat="47.437990112" lon="10.980521645">
        <ele>1441.6</ele>
        <time>2021-04-09T09:12:28Z</time>
      </trkpt>
      <trkpt lat="47.438010480" lon="10.980521645">
        <ele>1441.2</ele>
        <time>2021-04-09T09:13:05Z</time>
      </trkpt>
      <trkpt lat="47.438011570" lon="10.980525082">
        <ele>1441.2</ele>
        <time>2021-04-09T09:13:56Z</time>
      </trkpt>
      <trkpt lat="47.437935546" lon="10.980526172">
        <ele>1442.6</ele>
        <time>2021-04-09T09:14:12Z</time>
      </trkpt>
      <trkpt lat="47.437962536" lon="10.980497673">
        <ele>1442.2</ele>
        <time>2021-04-09T09:14:27Z</time>
      </trkpt>
      <trkpt lat="47.437962368" lon="10.980484514">
        <ele>1442.3</ele>
        <time>2021-04-09T09:14:45Z</time>
      </trkpt>
      <trkpt lat="47.437942838" lon="10.980467079">
        <ele>1442.9</ele>
        <time>2021-04-09T09:15:07Z</time>
      </trkpt>
      <trkpt lat="47.437912663" lon="10.980452998">
        <ele>1443.6</ele>
        <time>2021-04-09T09:15:22Z</time>
      </trkpt>
      <trkpt lat="47.437894558" lon="10.980454255">
        <ele>1444.0</ele>
        <time>2021-04-09T09:15:27Z</time>
      </trkpt>
      <trkpt lat="47.437748630" lon="10.980442017">
        <ele>1447.3</ele>
        <time>2021-04-09T09:15:47Z</time>
      </trkpt>
      <trkpt lat="47.437645616" lon="10.980450315">
        <ele>1450.7</ele>
        <time>2021-04-09T09:16:03Z</time>
      </trkpt>
      <trkpt lat="47.437548134" lon="10.980393570">
        <ele>1454.3</ele>
        <time>2021-04-09T09:16:17Z</time>
      </trkpt>
      <trkpt lat="47.437474374" lon="10.980358198">
        <ele>1456.5</ele>
        <time>2021-04-09T09:16:33Z</time>
      </trkpt>
      <trkpt lat="47.437419305" lon="10.980271194">
        <ele>1458.0</ele>
        <time>2021-04-09T09:16:50Z</time>
      </trkpt>
      <trkpt lat="47.437330540" lon="10.980185447">
        <ele>1460.2</ele>
        <time>2021-04-09T09:17:06Z</time>
      </trkpt>
      <trkpt lat="47.437229790" lon="10.980114620">
        <ele>1462.5</ele>
        <time>2021-04-09T09:17:22Z</time>
      </trkpt>
      <trkpt lat="47.437154185" lon="10.980047733">
        <ele>1464.2</ele>
        <time>2021-04-09T09:17:37Z</time>
      </trkpt>
      <trkpt lat="47.437070282" lon="10.979958381">
        <ele>1466.1</ele>
        <time>2021-04-09T09:17:51Z</time>
      </trkpt>
      <trkpt lat="47.436974561" lon="10.979901301">
        <ele>1468.6</ele>
        <time>2021-04-09T09:18:06Z</time>
      </trkpt>
      <trkpt lat="47.436908092" lon="10.979860313">
        <ele>1470.4</ele>
        <time>2021-04-09T09:18:27Z</time>
      </trkpt>
      <trkpt lat="47.436879426" lon="10.979833659">
        <ele>1471.2</ele>
        <time>2021-04-09T09:18:48Z</time>
      </trkpt>
      <trkpt lat="47.436820753" lon="10.979792336">
        <ele>1473.1</ele>
        <time>2021-04-09T09:19:03Z</time>
      </trkpt>
      <trkpt lat="47.436769456" lon="10.979791246">
        <ele>1474.2</ele>
        <time>2021-04-09T09:19:24Z</time>
      </trkpt>
      <trkpt lat="47.436658395" lon="10.979732824">
        <ele>1477.1</ele>
        <time>2021-04-09T09:19:45Z</time>
      </trkpt>
      <trkpt lat="47.436519340" lon="10.979666272">
        <ele>1479.1</ele>
        <time>2021-04-09T09:20:06Z</time>
      </trkpt>
      <trkpt lat="47.436316078" lon="10.979547417">
        <ele>1481.1</ele>
        <time>2021-04-09T09:20:29Z</time>
      </trkpt>
      <trkpt lat="47.436222620" lon="10.979445493">
        <ele>1482.4</ele>
        <time>2021-04-09T09:20:48Z</time>
      </trkpt>
      <trkpt lat="47.436156236" lon="10.979363183">
        <ele>1485.2</ele>
        <time>2021-04-09T09:21:03Z</time>
      </trkpt>
      <trkpt lat="47.436074764" lon="10.979280621">
        <ele>1488.7</ele>
        <time>2021-04-09T09:21:21Z</time>
      </trkpt>
      <trkpt lat="47.436021706" lon="10.979214488">
        <ele>1491.2</ele>
        <time>2021-04-09T09:21:34Z</time>
      </trkpt>
      <trkpt lat="47.435972672" lon="10.979175596">
        <ele>1492.9</ele>
        <time>2021-04-09T09:21:40Z</time>
      </trkpt>
      <trkpt lat="47.435875610" lon="10.979096722">
        <ele>1496.4</ele>
        <time>2021-04-09T09:21:52Z</time>
      </trkpt>
      <trkpt lat="47.435784582" lon="10.979054393">
        <ele>1498.8</ele>
        <time>2021-04-09T09:22:08Z</time>
      </trkpt>
      <trkpt lat="47.435640246" lon="10.979018686">
        <ele>1500.0</ele>
        <time>2021-04-09T09:22:24Z</time>
      </trkpt>
      <trkpt lat="47.435545195" lon="10.979005527">
        <ele>1500.0</ele>
        <time>2021-04-09T09:22:37Z</time>
      </trkpt>
      <trkpt lat="47.435493311" lon="10.979011226">
        <ele>1499.9</ele>
        <time>2021-04-09T09:22:40Z</time>
      </trkpt>
      <trkpt lat="47.435348975" lon="10.979000162">
        <ele>1500.2</ele>
        <time>2021-04-09T09:22:59Z</time>
      </trkpt>
      <trkpt lat="47.435239842" lon="10.978975100">
        <ele>1501.2</ele>
        <time>2021-04-09T09:23:21Z</time>
      </trkpt>
      <trkpt lat="47.435124591" lon="10.978943836">
        <ele>1502.8</ele>
        <time>2021-04-09T09:23:40Z</time>
      </trkpt>
      <trkpt lat="47.434992911" lon="10.978875188">
        <ele>1505.4</ele>
        <time>2021-04-09T09:24:05Z</time>
      </trkpt>
      <trkpt lat="47.434895849" lon="10.978829339">
        <ele>1507.6</ele>
        <time>2021-04-09T09:24:25Z</time>
      </trkpt>
      <trkpt lat="47.434763834" lon="10.978774689">
        <ele>1510.4</ele>
        <time>2021-04-09T09:24:46Z</time>
      </trkpt>
      <trkpt lat="47.434643386" lon="10.978730349">
        <ele>1512.7</ele>
        <time>2021-04-09T09:25:03Z</time>
      </trkpt>
      <trkpt lat="47.434532745" lon="10.978657594">
        <ele>1514.6</ele>
        <time>2021-04-09T09:25:20Z</time>
      </trkpt>
      <trkpt lat="47.434392767" lon="10.978579391">
        <ele>1516.5</ele>
        <time>2021-04-09T09:25:43Z</time>
      </trkpt>
      <trkpt lat="47.434268212" lon="10.978510659">
        <ele>1517.5</ele>
        <time>2021-04-09T09:26:03Z</time>
      </trkpt>
      <trkpt lat="47.434170647" lon="10.978470678">
        <ele>1518.1</ele>
        <time>2021-04-09T09:26:20Z</time>
      </trkpt>
      <trkpt lat="47.434138041" lon="10.978467409">
        <ele>1518.4</ele>
        <time>2021-04-09T09:26:25Z</time>
      </trkpt>
      <trkpt lat="47.434011893" lon="10.978472857">
        <ele>1519.6</ele>
        <time>2021-04-09T09:26:42Z</time>
      </trkpt>
      <trkpt lat="47.434006780" lon="10.978468833">
        <ele>1519.7</ele>
        <time>2021-04-09T09:27:00Z</time>
      </trkpt>
      <trkpt lat="47.433908042" lon="10.978523064">
        <ele>1521.1</ele>
        <time>2021-04-09T09:27:26Z</time>
      </trkpt>
      <trkpt lat="47.433800418" lon="10.978603866">
        <ele>1523.3</ele>
        <time>2021-04-09T09:27:43Z</time>
      </trkpt>
      <trkpt lat="47.433665050" lon="10.978741581">
        <ele>1526.2</ele>
        <time>2021-04-09T09:28:04Z</time>
      </trkpt>
      <trkpt lat="47.433618447" lon="10.978784580">
        <ele>1527.3</ele>
        <time>2021-04-09T09:28:22Z</time>
      </trkpt>
      <trkpt lat="47.433496909" lon="10.978990020">
        <ele>1529.8</ele>
        <time>2021-04-09T09:28:45Z</time>
      </trkpt>
      <trkpt lat="47.433468411" lon="10.979137374">
        <ele>1531.6</ele>
        <time>2021-04-09T09:29:02Z</time>
      </trkpt>
      <trkpt lat="47.433460616" lon="10.979259415">
        <ele>1533.1</ele>
        <time>2021-04-09T09:29:20Z</time>
      </trkpt>
      <trkpt lat="47.433387022" lon="10.979493354">
        <ele>1537.0</ele>
        <time>2021-04-09T09:29:41Z</time>
      </trkpt>
      <trkpt lat="47.433325667" lon="10.979694100">
        <ele>1540.4</ele>
        <time>2021-04-09T09:30:00Z</time>
      </trkpt>
      <trkpt lat="47.433298091" lon="10.979844555">
        <ele>1542.4</ele>
        <time>2021-04-09T09:30:15Z</time>
      </trkpt>
      <trkpt lat="47.433262635" lon="10.980020324">
        <ele>1544.8</ele>
        <time>2021-04-09T09:30:31Z</time>
      </trkpt>
      <trkpt lat="47.433227347" lon="10.980200032">
        <ele>1547.8</ele>
        <time>2021-04-09T09:30:49Z</time>
      </trkpt>
      <trkpt lat="47.433193317" lon="10.980373537">
        <ele>1550.7</ele>
        <time>2021-04-09T09:31:04Z</time>
      </trkpt>
      <trkpt lat="47.433154006" lon="10.980559867">
        <ele>1553.7</ele>
        <time>2021-04-09T09:31:22Z</time>
      </trkpt>
      <trkpt lat="47.433085358" lon="10.980712417">
        <ele>1556.2</ele>
        <time>2021-04-09T09:31:41Z</time>
      </trkpt>
      <trkpt lat="47.433027606" lon="10.980820544">
        <ele>1558.5</ele>
        <time>2021-04-09T09:31:57Z</time>
      </trkpt>
      <trkpt lat="47.432965245" lon="10.980940908">
        <ele>1561.4</ele>
        <time>2021-04-09T09:32:14Z</time>
      </trkpt>
      <trkpt lat="47.432932807" lon="10.981052471">
        <ele>1563.9</ele>
        <time>2021-04-09T09:32:30Z</time>
      </trkpt>
      <trkpt lat="47.432945464" lon="10.981145510">
        <ele>1565.6</ele>
        <time>2021-04-09T09:32:45Z</time>
      </trkpt>
      <trkpt lat="47.432923084" lon="10.981199071">
        <ele>1567.0</ele>
        <time>2021-04-09T09:33:02Z</time>
      </trkpt>
      <trkpt lat="47.432876481" lon="10.981278364">
        <ele>1569.0</ele>
        <time>2021-04-09T09:33:33Z</time>
      </trkpt>
      <trkpt lat="47.432820322" lon="10.981342988">
        <ele>1570.8</ele>
        <time>2021-04-09T09:33:46Z</time>
      </trkpt>
      <trkpt lat="47.432793751" lon="10.981444828">
        <ele>1573.2</ele>
        <time>2021-04-09T09:33:59Z</time>
      </trkpt>
      <trkpt lat="47.432745472" lon="10.981542394">
        <ele>1575.8</ele>
        <time>2021-04-09T09:34:13Z</time>
      </trkpt>
      <trkpt lat="47.432704652" lon="10.981633253">
        <ele>1578.1</ele>
        <time>2021-04-09T09:34:29Z</time>
      </trkpt>
      <trkpt lat="47.432702389" lon="10.981774908">
        <ele>1580.2</ele>
        <time>2021-04-09T09:34:47Z</time>
      </trkpt>
      <trkpt lat="47.432677075" lon="10.981927291">
        <ele>1582.7</ele>
        <time>2021-04-09T09:35:05Z</time>
      </trkpt>
      <trkpt lat="47.432651259" lon="10.982082440">
        <ele>1585.8</ele>
        <time>2021-04-09T09:35:25Z</time>
      </trkpt>
      <trkpt lat="47.432631478" lon="10.982180843">
        <ele>1588.1</ele>
        <time>2021-04-09T09:35:39Z</time>
      </trkpt>
      <trkpt lat="47.432606919" lon="10.982287293">
        <ele>1590.8</ele>
        <time>2021-04-09T09:35:48Z</time>
      </trkpt>
      <trkpt lat="47.432593256" lon="10.982459793">
        <ele>1594.3</ele>
        <time>2021-04-09T09:36:04Z</time>
      </trkpt>
      <trkpt lat="47.432604488" lon="10.982598933">
        <ele>1596.7</ele>
        <time>2021-04-09T09:36:20Z</time>
      </trkpt>
      <trkpt lat="47.432627287" lon="10.982669843">
        <ele>1597.5</ele>
        <time>2021-04-09T09:36:34Z</time>
      </trkpt>
      <trkpt lat="47.432657126" lon="10.982810576">
        <ele>1599.3</ele>
        <time>2021-04-09T09:36:49Z</time>
      </trkpt>
      <trkpt lat="47.432702640" lon="10.982958432">
        <ele>1601.1</ele>
        <time>2021-04-09T09:37:06Z</time>
      </trkpt>
      <trkpt lat="47.432743711" lon="10.983094974">
        <ele>1602.0</ele>
        <time>2021-04-09T09:37:19Z</time>
      </trkpt>
      <trkpt lat="47.432756117" lon="10.983273843">
        <ele>1603.3</ele>
        <time>2021-04-09T09:37:38Z</time>
      </trkpt>
      <trkpt lat="47.432756368" lon="10.983271832">
        <ele>1603.2</ele>
        <time>2021-04-09T09:38:28Z</time>
      </trkpt>
      <trkpt lat="47.432755027" lon="10.983338552">
        <ele>1604.0</ele>
        <time>2021-04-09T09:38:35Z</time>
      </trkpt>
      <trkpt lat="47.432713788" lon="10.983528150">
        <ele>1607.8</ele>
        <time>2021-04-09T09:38:57Z</time>
      </trkpt>
      <trkpt lat="47.432669448" lon="10.983678019">
        <ele>1611.2</ele>
        <time>2021-04-09T09:39:15Z</time>
      </trkpt>
      <trkpt lat="47.432670118" lon="10.983814141">
        <ele>1612.9</ele>
        <time>2021-04-09T09:39:34Z</time>
      </trkpt>
      <trkpt lat="47.432710016" lon="10.983922938">
        <ele>1613.6</ele>
        <time>2021-04-09T09:39:52Z</time>
      </trkpt>
      <trkpt lat="47.432772545" lon="10.984033328">
        <ele>1614.4</ele>
        <time>2021-04-09T09:40:08Z</time>
      </trkpt>
      <trkpt lat="47.432831302" lon="10.984184537">
        <ele>1616.5</ele>
        <time>2021-04-09T09:40:30Z</time>
      </trkpt>
      <trkpt lat="47.432917887" lon="10.984346140">
        <ele>1618.8</ele>
        <time>2021-04-09T09:40:53Z</time>
      </trkpt>
      <trkpt lat="47.432975471" lon="10.984479496">
        <ele>1620.2</ele>
        <time>2021-04-09T09:41:12Z</time>
      </trkpt>
      <trkpt lat="47.433027355" lon="10.984631209">
        <ele>1621.4</ele>
        <time>2021-04-09T09:41:33Z</time>
      </trkpt>
      <trkpt lat="47.433080999" lon="10.984804379">
        <ele>1622.7</ele>
        <time>2021-04-09T09:41:55Z</time>
      </trkpt>
      <trkpt lat="47.433096757" lon="10.984942596">
        <ele>1624.4</ele>
        <time>2021-04-09T09:42:13Z</time>
      </trkpt>
      <trkpt lat="47.433091560" lon="10.985069079">
        <ele>1627.3</ele>
        <time>2021-04-09T09:42:30Z</time>
      </trkpt>
      <trkpt lat="47.433031881" lon="10.985075114">
        <ele>1629.3</ele>
        <time>2021-04-09T09:42:48Z</time>
      </trkpt>
      <trkpt lat="47.432967005" lon="10.985053824">
        <ele>1630.8</ele>
        <time>2021-04-09T09:43:07Z</time>
      </trkpt>
      <trkpt lat="47.432893161" lon="10.985003449">
        <ele>1631.9</ele>
        <time>2021-04-09T09:43:24Z</time>
      </trkpt>
      <trkpt lat="47.432881761" lon="10.985007221">
        <ele>1632.4</ele>
        <time>2021-04-09T09:43:41Z</time>
      </trkpt>
      <trkpt lat="47.432854436" lon="10.985122975">
        <ele>1636.0</ele>
        <time>2021-04-09T09:43:58Z</time>
      </trkpt>
      <trkpt lat="47.432841864" lon="10.985218696">
        <ele>1638.7</ele>
        <time>2021-04-09T09:44:17Z</time>
      </trkpt>
      <trkpt lat="47.432727115" lon="10.985160107">
        <ele>1641.0</ele>
        <time>2021-04-09T09:44:37Z</time>
      </trkpt>
      <trkpt lat="47.432709429" lon="10.985159604">
        <ele>1641.5</ele>
        <time>2021-04-09T09:45:04Z</time>
      </trkpt>
      <trkpt lat="47.432643296" lon="10.985179218">
        <ele>1644.5</ele>
        <time>2021-04-09T09:45:20Z</time>
      </trkpt>
      <trkpt lat="47.432544474" lon="10.985193215">
        <ele>1648.6</ele>
        <time>2021-04-09T09:45:41Z</time>
      </trkpt>
      <trkpt lat="47.432458811" lon="10.985199502">
        <ele>1651.7</ele>
        <time>2021-04-09T09:46:00Z</time>
      </trkpt>
      <trkpt lat="47.432401562" lon="10.985235460">
        <ele>1654.3</ele>
        <time>2021-04-09T09:46:19Z</time>
      </trkpt>
      <trkpt lat="47.432453362" lon="10.985364793">
        <ele>1656.9</ele>
        <time>2021-04-09T09:46:43Z</time>
      </trkpt>
      <trkpt lat="47.432488985" lon="10.985449785">
        <ele>1658.3</ele>
        <time>2021-04-09T09:46:57Z</time>
      </trkpt>
      <trkpt lat="47.432569200" lon="10.985601582">
        <ele>1659.4</ele>
        <time>2021-04-09T09:47:21Z</time>
      </trkpt>
      <trkpt lat="47.432571547" lon="10.985698141">
        <ele>1662.6</ele>
        <time>2021-04-09T09:47:40Z</time>
      </trkpt>
      <trkpt lat="47.432588143" lon="10.985832000">
        <ele>1667.0</ele>
        <time>2021-04-09T09:47:56Z</time>
      </trkpt>
      <trkpt lat="47.432566266" lon="10.985858487">
        <ele>1668.7</ele>
        <time>2021-04-09T09:48:08Z</time>
      </trkpt>
      <trkpt lat="47.432479849" lon="10.985833844">
        <ele>1670.6</ele>
        <time>2021-04-09T09:48:28Z</time>
      </trkpt>
      <trkpt lat="47.432398964" lon="10.985826971">
        <ele>1673.2</ele>
        <time>2021-04-09T09:48:49Z</time>
      </trkpt>
      <trkpt lat="47.432314977" lon="10.985801239">
        <ele>1675.2</ele>
        <time>2021-04-09T09:49:10Z</time>
      </trkpt>
      <trkpt lat="47.432277845" lon="10.985777853">
        <ele>1675.8</ele>
        <time>2021-04-09T09:49:29Z</time>
      </trkpt>
      <trkpt lat="47.432277510" lon="10.985778272">
        <ele>1675.8</ele>
        <time>2021-04-09T09:50:12Z</time>
      </trkpt>
      <trkpt lat="47.432265021" lon="10.985784307">
        <ele>1676.4</ele>
        <time>2021-04-09T09:50:26Z</time>
      </trkpt>
      <trkpt lat="47.432262087" lon="10.985785397">
        <ele>1676.6</ele>
        <time>2021-04-09T09:50:27Z</time>
      </trkpt>
      <trkpt lat="47.432207437" lon="10.985829318">
        <ele>1680.2</ele>
        <time>2021-04-09T09:50:47Z</time>
      </trkpt>
      <trkpt lat="47.432238618" lon="10.985979606">
        <ele>1683.2</ele>
        <time>2021-04-09T09:51:08Z</time>
      </trkpt>
      <trkpt lat="47.432283796" lon="10.986118242">
        <ele>1685.9</ele>
        <time>2021-04-09T09:51:27Z</time>
      </trkpt>
      <trkpt lat="47.432285221" lon="10.986125115">
        <ele>1686.1</ele>
        <time>2021-04-09T09:51:28Z</time>
      </trkpt>
      <trkpt lat="47.432323191" lon="10.986278756">
        <ele>1690.0</ele>
        <time>2021-04-09T09:51:49Z</time>
      </trkpt>
      <trkpt lat="47.432376081" lon="10.986424349">
        <ele>1693.7</ele>
        <time>2021-04-09T09:52:09Z</time>
      </trkpt>
      <trkpt lat="47.432348002" lon="10.986467768">
        <ele>1695.8</ele>
        <time>2021-04-09T09:52:31Z</time>
      </trkpt>
      <trkpt lat="47.432233421" lon="10.986480424">
        <ele>1698.7</ele>
        <time>2021-04-09T09:52:50Z</time>
      </trkpt>
      <trkpt lat="47.432124373" lon="10.986486878">
        <ele>1702.3</ele>
        <time>2021-04-09T09:53:14Z</time>
      </trkpt>
      <trkpt lat="47.432132922" lon="10.986591736">
        <ele>1705.2</ele>
        <time>2021-04-09T09:53:36Z</time>
      </trkpt>
      <trkpt lat="47.432176424" lon="10.986727607">
        <ele>1708.6</ele>
        <time>2021-04-09T09:53:59Z</time>
      </trkpt>
      <trkpt lat="47.432227135" lon="10.986860544">
        <ele>1712.0</ele>
        <time>2021-04-09T09:54:21Z</time>
      </trkpt>
      <trkpt lat="47.432191931" lon="10.986897424">
        <ele>1714.2</ele>
        <time>2021-04-09T09:54:39Z</time>
      </trkpt>
      <trkpt lat="47.432142561" lon="10.986956097">
        <ele>1717.5</ele>
        <time>2021-04-09T09:55:05Z</time>
      </trkpt>
      <trkpt lat="47.432186315" lon="10.987093057">
        <ele>1722.5</ele>
        <time>2021-04-09T09:55:28Z</time>
      </trkpt>
      <trkpt lat="47.432163348" lon="10.987124741">
        <ele>1724.3</ele>
        <time>2021-04-09T09:55:47Z</time>
      </trkpt>
      <trkpt lat="47.432070477" lon="10.987119544">
        <ele>1725.9</ele>
        <time>2021-04-09T09:56:06Z</time>
      </trkpt>
      <trkpt lat="47.432070980" lon="10.987107474">
        <ele>1725.4</ele>
        <time>2021-04-09T09:56:28Z</time>
      </trkpt>
      <trkpt lat="47.432071650" lon="10.987109821">
        <ele>1725.5</ele>
        <time>2021-04-09T09:57:16Z</time>
      </trkpt>
      <trkpt lat="47.432071399" lon="10.987108899">
        <ele>1725.4</ele>
        <time>2021-04-09T09:58:16Z</time>
      </trkpt>
      <trkpt lat="47.432074668" lon="10.987087023">
        <ele>1724.5</ele>
        <time>2021-04-09T09:59:28Z</time>
      </trkpt>
      <trkpt lat="47.432053629" lon="10.987175954">
        <ele>1728.5</ele>
        <time>2021-04-09T09:59:55Z</time>
      </trkpt>
      <trkpt lat="47.432081373" lon="10.987343593">
        <ele>1734.7</ele>
        <time>2021-04-09T10:00:18Z</time>
      </trkpt>
      <trkpt lat="47.432037955" lon="10.987406122">
        <ele>1737.8</ele>
        <time>2021-04-09T10:00:42Z</time>
      </trkpt>
      <trkpt lat="47.431926308" lon="10.987386592">
        <ele>1739.4</ele>
        <time>2021-04-09T10:01:03Z</time>
      </trkpt>
      <trkpt lat="47.431906778" lon="10.987381563">
        <ele>1739.7</ele>
        <time>2021-04-09T10:01:08Z</time>
      </trkpt>
      <trkpt lat="47.431780044" lon="10.987451300">
        <ele>1745.2</ele>
        <time>2021-04-09T10:01:26Z</time>
      </trkpt>
      <trkpt lat="47.431683149" lon="10.987471668">
        <ele>1748.9</ele>
        <time>2021-04-09T10:01:43Z</time>
      </trkpt>
      <trkpt lat="47.431589942" lon="10.987505280">
        <ele>1752.8</ele>
        <time>2021-04-09T10:01:59Z</time>
      </trkpt>
      <trkpt lat="47.431446779" lon="10.987600414">
        <ele>1759.5</ele>
        <time>2021-04-09T10:02:13Z</time>
      </trkpt>
      <trkpt lat="47.431404954" lon="10.987705104">
        <ele>1763.1</ele>
        <time>2021-04-09T10:02:33Z</time>
      </trkpt>
      <trkpt lat="47.431395399" lon="10.987716503">
        <ele>1763.7</ele>
        <time>2021-04-09T10:02:37Z</time>
      </trkpt>
      <trkpt lat="47.431369666" lon="10.987731256">
        <ele>1764.8</ele>
        <time>2021-04-09T10:02:59Z</time>
      </trkpt>
      <trkpt lat="47.431298168" lon="10.987751791">
        <ele>1767.4</ele>
        <time>2021-04-09T10:03:24Z</time>
      </trkpt>
      <trkpt lat="47.431241591" lon="10.987780960">
        <ele>1769.9</ele>
        <time>2021-04-09T10:03:44Z</time>
      </trkpt>
      <trkpt lat="47.431151401" lon="10.987819936">
        <ele>1773.4</ele>
        <time>2021-04-09T10:04:07Z</time>
      </trkpt>
      <trkpt lat="47.431147378" lon="10.987841981">
        <ele>1773.8</ele>
        <time>2021-04-09T10:04:30Z</time>
      </trkpt>
      <trkpt lat="47.431152072" lon="10.987838376">
        <ele>1773.6</ele>
        <time>2021-04-09T10:04:57Z</time>
      </trkpt>
      <trkpt lat="47.431143103" lon="10.987834688">
        <ele>1773.8</ele>
        <time>2021-04-09T10:05:18Z</time>
      </trkpt>
      <trkpt lat="47.431113934" lon="10.987824630">
        <ele>1774.6</ele>
        <time>2021-04-09T10:05:49Z</time>
      </trkpt>
      <trkpt lat="47.431118544" lon="10.987845501">
        <ele>1774.7</ele>
        <time>2021-04-09T10:06:12Z</time>
      </trkpt>
      <trkpt lat="47.431174535" lon="10.987909623">
        <ele>1773.9</ele>
        <time>2021-04-09T10:06:26Z</time>
      </trkpt>
      <trkpt lat="47.431224324" lon="10.987976342">
        <ele>1773.9</ele>
        <time>2021-04-09T10:06:41Z</time>
      </trkpt>
      <trkpt lat="47.431260701" lon="10.988053875">
        <ele>1774.7</ele>
        <time>2021-04-09T10:06:57Z</time>
      </trkpt>
      <trkpt lat="47.431320464" lon="10.988123110">
        <ele>1775.1</ele>
        <time>2021-04-09T10:07:13Z</time>
      </trkpt>
      <trkpt lat="47.431370085" lon="10.988213131">
        <ele>1776.8</ele>
        <time>2021-04-09T10:07:29Z</time>
      </trkpt>
      <trkpt lat="47.431367487" lon="10.988248587">
        <ele>1777.9</ele>
        <time>2021-04-09T10:07:36Z</time>
      </trkpt>
      <trkpt lat="47.431366565" lon="10.988248251">
        <ele>1777.8</ele>
        <time>2021-04-09T10:07:51Z</time>
      </trkpt>
      <trkpt lat="47.431395315" lon="10.988234840">
        <ele>1777.1</ele>
        <time>2021-04-09T10:07:57Z</time>
      </trkpt>
      <trkpt lat="47.431422975" lon="10.988226039">
        <ele>1776.5</ele>
        <time>2021-04-09T10:08:00Z</time>
      </trkpt>
      <trkpt lat="47.431482654" lon="10.988291502">
        <ele>1778.4</ele>
        <time>2021-04-09T10:08:19Z</time>
      </trkpt>
      <trkpt lat="47.431497658" lon="10.988327209">
        <ele>1779.8</ele>
        <time>2021-04-09T10:08:40Z</time>
      </trkpt>
      <trkpt lat="47.431443092" lon="10.988351684">
        <ele>1781.2</ele>
        <time>2021-04-09T10:08:57Z</time>
      </trkpt>
      <trkpt lat="47.431446779" lon="10.988441706">
        <ele>1784.7</ele>
        <time>2021-04-09T10:09:17Z</time>
      </trkpt>
      <trkpt lat="47.431442505" lon="10.988539020">
        <ele>1788.7</ele>
        <time>2021-04-09T10:09:35Z</time>
      </trkpt>
      <trkpt lat="47.431461364" lon="10.988603057">
        <ele>1791.2</ele>
        <time>2021-04-09T10:09:50Z</time>
      </trkpt>
      <trkpt lat="47.431482989" lon="10.988683943">
        <ele>1794.3</ele>
        <time>2021-04-09T10:10:06Z</time>
      </trkpt>
      <trkpt lat="47.431519283" lon="10.988778742">
        <ele>1798.0</ele>
        <time>2021-04-09T10:10:20Z</time>
      </trkpt>
      <trkpt lat="47.431593966" lon="10.988908494">
        <ele>1803.3</ele>
        <time>2021-04-09T10:10:40Z</time>
      </trkpt>
      <trkpt lat="47.431662865" lon="10.989021314">
        <ele>1807.6</ele>
        <time>2021-04-09T10:11:03Z</time>
      </trkpt>
      <trkpt lat="47.431726819" lon="10.989045035">
        <ele>1808.6</ele>
        <time>2021-04-09T10:11:55Z</time>
      </trkpt>
      <trkpt lat="47.431661859" lon="10.989016620">
        <ele>1807.4</ele>
        <time>2021-04-09T10:12:03Z</time>
      </trkpt>
      <trkpt lat="47.431501932" lon="10.988930287">
        <ele>1803.9</ele>
        <time>2021-04-09T10:12:28Z</time>
      </trkpt>
      <trkpt lat="47.431327002" lon="10.988913607">
        <ele>1803.4</ele>
        <time>2021-04-09T10:12:47Z</time>
      </trkpt>
      <trkpt lat="47.431257348" lon="10.988888545">
        <ele>1803.5</ele>
        <time>2021-04-09T10:13:02Z</time>
      </trkpt>
      <trkpt lat="47.431047969" lon="10.988833979">
        <ele>1806.2</ele>
        <time>2021-04-09T10:13:36Z</time>
      </trkpt>
      <trkpt lat="47.431001365" lon="10.988825764">
        <ele>1807.4</ele>
        <time>2021-04-09T10:13:46Z</time>
      </trkpt>
      <trkpt lat="47.430997929" lon="10.988826603">
        <ele>1807.6</ele>
        <time>2021-04-09T10:13:53Z</time>
      </trkpt>
      <trkpt lat="47.430994073" lon="10.988826938">
        <ele>1807.7</ele>
        <time>2021-04-09T10:15:04Z</time>
      </trkpt>
      <trkpt lat="47.430994073" lon="10.988827022">
        <ele>1807.7</ele>
        <time>2021-04-09T10:15:05Z</time>
      </trkpt>
      <trkpt lat="47.430994073" lon="10.988827189">
        <ele>1807.7</ele>
        <time>2021-04-09T10:15:06Z</time>
      </trkpt>
      <trkpt lat="47.430953029" lon="10.988798611">
        <ele>1807.7</ele>
        <time>2021-04-09T10:42:13Z</time>
      </trkpt>
      <trkpt lat="47.430872555" lon="10.988769055">
        <ele>1808.8</ele>
        <time>2021-04-09T10:42:41Z</time>
      </trkpt>
    </trkseg>
  </trk>
</gpx>
